Airfield :
LOGIN :

Register | Disclaimer

   EN    FR    IT 

 










Legend :    VFR   Marginal VFR   IFR   Intensive IFR   Very Intensive IFR
Visi :
Ceiling :
>= 8 km
>= 3000ft
5 to 8 km
1000 to 3000 ft
1500m to 5 km
500 to 1000 ft
800 to 1500m
200 to 500 ft
< 800m
< 200 ft
Symbols :   Thunderstorms  Fog  Heavy snow  Heavy precipitations  Wind > 20 kt
SIGMETs :     Misc.  Thunderstorms  Icing  Turbulence  Mountain Waves  Volcanic Ashes






- Airport Elevation : 26 ft


ETNT - Wittmundhaven AB

CURRENT METAR :
  • 191620Z 27017KT 9999 FEW017 BKN025 06/02 Q1016 BLU BLU TEMPO WHT

EXPIRED METARs :
  • 191520Z 27018KT 9999 FEW018 BKN030 06/03 Q1015 BLU BLU TEMPO WHT
  • 191425Z 29015KT 9999 -SHRA SCT012CB BKN030 05/04 Q1014 BLU BLU TEMPO WHT
  • 191420Z 30016KT 4000 -SHRAGS BKN012CB BKN035 05/04 Q1014 GRN BLU TEMPO GRN

TAF TAF ETNT
Valid from the 19 at 15:00 until the 20 at 00:00 UTC


191422Z 1915/1924 27015KT 9999 NSW SCT020 BKN030
PROB30 1915/1916 29018G33KT 4000 SHRA BKN012 BKN020TCU
TEMPO 1915/1920 27018G33KT 9999 NSW SCT010 BKN020
BECMG 1920/1922 23012KT 9000 NSW FEW015 SCT020 BKN200 BY ETGL



MET'MAP, your aeronautical weather chart ! - Copyright ORBIFLY December 2007 - Disclaimer

ORBIFLY MET'MAP TEAM :

Programming & Development : Alexandra Zaïnal
Concept & original design : Baudouin d'Aumeries
Assistance for programming : Marc-Olivier Méhu
Technical & hardware support : Manuel Goepfert

Contact : metmap@orbifly.com




SOURCES & CREDITS :

   NOAA